sensor_id;sensor_type;location;lat;lon;timestamp;P1;durP1;ratioP1;P2;durP2;ratioP2
4724;SDS011;2376;53.544;10.226;2023-03-14T00:00:09;5.77;;;2.83;;
4724;SDS011;2376;53.544;10.226;2023-03-14T00:02:38;7.60;;;3.27;;
4724;SDS011;2376;53.544;10.226;2023-03-14T00:05:05;7.43;;;3.00;;
4724;SDS011;2376;53.544;10.226;2023-03-14T00:07:33;3.63;;;3.13;;
4724;SDS011;2376;53.544;10.226;2023-03-14T00:10:02;4.30;;;2.73;;
4724;SDS011;2376;53.544;10.226;2023-03-14T00:12:30;4.67;;;2.70;;
4724;SDS011;2376;53.544;10.226;2023-03-14T00:14:57;6.40;;;2.67;;
4724;SDS011;2376;53.544;10.226;2023-03-14T00:17:26;4.93;;;2.57;;
4724;SDS011;2376;53.544;10.226;2023-03-14T00:19:53;3.13;;;2.40;;
4724;SDS011;2376;53.544;10.226;2023-03-14T00:22:20;3.03;;;2.87;;
4724;SDS011;2376;53.544;10.226;2023-03-14T00:24:47;2.93;;;2.70;;
4724;SDS011;2376;53.544;10.226;2023-03-14T00:27:14;4.27;;;2.37;;
4724;SDS011;2376;53.544;10.226;2023-03-14T00:29:42;9.50;;;2.87;;
4724;SDS011;2376;53.544;10.226;2023-03-14T00:32:09;3.30;;;2.77;;
4724;SDS011;2376;53.544;10.226;2023-03-14T00:34:37;3.17;;;2.80;;
4724;SDS011;2376;53.544;10.226;2023-03-14T00:37:04;3.77;;;2.63;;
4724;SDS011;2376;53.544;10.226;2023-03-14T00:39:31;5.43;;;2.73;;
4724;SDS011;2376;53.544;10.226;2023-03-14T00:41:58;2.93;;;2.63;;
4724;SDS011;2376;53.544;10.226;2023-03-14T00:44:26;5.30;;;2.63;;
4724;SDS011;2376;53.544;10.226;2023-03-14T00:46:53;3.90;;;2.90;;
4724;SDS011;2376;53.544;10.226;2023-03-14T00:49:20;2.80;;;2.50;;
4724;SDS011;2376;53.544;10.226;2023-03-14T00:51:48;4.03;;;3.17;;
4724;SDS011;2376;53.544;10.226;2023-03-14T00:54:16;4.93;;;2.80;;
4724;SDS011;2376;53.544;10.226;2023-03-14T00:56:43;3.03;;;2.20;;
4724;SDS011;2376;53.544;10.226;2023-03-14T00:59:10;4.20;;;2.97;;
4724;SDS011;2376;53.544;10.226;2023-03-14T01:01:37;6.20;;;2.90;;
4724;SDS011;2376;53.544;10.226;2023-03-14T01:04:04;4.77;;;2.90;;
4724;SDS011;2376;53.544;10.226;2023-03-14T01:06:31;3.13;;;2.73;;
4724;SDS011;2376;53.544;10.226;2023-03-14T01:08:59;3.33;;;2.97;;
4724;SDS011;2376;53.544;10.226;2023-03-14T01:11:27;3.03;;;2.80;;
4724;SDS011;2376;53.544;10.226;2023-03-14T01:13:55;6.97;;;3.57;;
4724;SDS011;2376;53.544;10.226;2023-03-14T01:16:23;7.73;;;3.17;;
4724;SDS011;2376;53.544;10.226;2023-03-14T01:18:51;6.20;;;2.83;;
4724;SDS011;2376;53.544;10.226;2023-03-14T01:21:19;2.63;;;2.40;;
4724;SDS011;2376;53.544;10.226;2023-03-14T01:23:49;3.40;;;2.97;;
4724;SDS011;2376;53.544;10.226;2023-03-14T01:26:18;3.33;;;3.03;;
4724;SDS011;2376;53.544;10.226;2023-03-14T01:28:47;6.73;;;3.40;;
4724;SDS011;2376;53.544;10.226;2023-03-14T01:31:15;3.40;;;3.10;;
4724;SDS011;2376;53.544;10.226;2023-03-14T01:33:42;7.80;;;4.13;;
4724;SDS011;2376;53.544;10.226;2023-03-14T01:36:10;5.00;;;2.87;;
4724;SDS011;2376;53.544;10.226;2023-03-14T01:38:46;4.63;;;2.73;;
4724;SDS011;2376;53.544;10.226;2023-03-14T01:41:14;2.87;;;2.60;;
4724;SDS011;2376;53.544;10.226;2023-03-14T01:43:43;4.17;;;2.50;;
4724;SDS011;2376;53.544;10.226;2023-03-14T01:46:17;2.80;;;2.17;;
4724;SDS011;2376;53.544;10.226;2023-03-14T01:48:50;3.30;;;2.70;;
4724;SDS011;2376;53.544;10.226;2023-03-14T01:51:24;4.87;;;2.97;;
4724;SDS011;2376;53.544;10.226;2023-03-14T01:53:54;2.90;;;2.57;;
4724;SDS011;2376;53.544;10.226;2023-03-14T01:56:29;10.77;;;3.10;;
4724;SDS011;2376;53.544;10.226;2023-03-14T01:58:58;3.63;;;3.33;;
4724;SDS011;2376;53.544;10.226;2023-03-14T02:01:27;8.10;;;3.00;;
4724;SDS011;2376;53.544;10.226;2023-03-14T02:03:56;6.10;;;3.70;;
4724;SDS011;2376;53.544;10.226;2023-03-14T02:06:26;4.40;;;2.40;;
4724;SDS011;2376;53.544;10.226;2023-03-14T02:08:57;10.43;;;3.20;;
4724;SDS011;2376;53.544;10.226;2023-03-14T02:11:26;5.47;;;3.50;;
4724;SDS011;2376;53.544;10.226;2023-03-14T02:13:55;7.53;;;3.50;;
4724;SDS011;2376;53.544;10.226;2023-03-14T02:16:24;5.53;;;2.80;;
4724;SDS011;2376;53.544;10.226;2023-03-14T02:18:51;4.90;;;2.93;;
4724;SDS011;2376;53.544;10.226;2023-03-14T02:21:20;8.07;;;2.90;;
4724;SDS011;2376;53.544;10.226;2023-03-14T02:23:53;3.10;;;2.43;;
4724;SDS011;2376;53.544;10.226;2023-03-14T02:26:31;5.67;;;3.37;;
4724;SDS011;2376;53.544;10.226;2023-03-14T02:29:05;8.90;;;3.57;;
4724;SDS011;2376;53.544;10.226;2023-03-14T02:31:32;4.03;;;3.10;;
4724;SDS011;2376;53.544;10.226;2023-03-14T02:33:59;4.70;;;2.47;;
4724;SDS011;2376;53.544;10.226;2023-03-14T02:36:27;10.97;;;2.87;;
4724;SDS011;2376;53.544;10.226;2023-03-14T02:38:55;2.97;;;2.63;;
4724;SDS011;2376;53.544;10.226;2023-03-14T02:41:29;6.03;;;3.03;;
4724;SDS011;2376;53.544;10.226;2023-03-14T02:43:56;10.13;;;3.33;;
4724;SDS011;2376;53.544;10.226;2023-03-14T02:46:25;5.83;;;2.73;;
4724;SDS011;2376;53.544;10.226;2023-03-14T02:48:53;4.70;;;3.40;;
4724;SDS011;2376;53.544;10.226;2023-03-14T02:51:21;7.50;;;3.10;;
4724;SDS011;2376;53.544;10.226;2023-03-14T02:53:49;5.50;;;2.93;;
4724;SDS011;2376;53.544;10.226;2023-03-14T02:56:16;5.70;;;3.10;;
4724;SDS011;2376;53.544;10.226;2023-03-14T02:58:43;6.90;;;3.10;;
4724;SDS011;2376;53.544;10.226;2023-03-14T03:01:09;5.20;;;4.00;;
4724;SDS011;2376;53.544;10.226;2023-03-14T03:03:38;4.93;;;2.80;;
4724;SDS011;2376;53.544;10.226;2023-03-14T03:06:05;6.40;;;2.93;;
4724;SDS011;2376;53.544;10.226;2023-03-14T03:08:32;4.20;;;3.30;;
4724;SDS011;2376;53.544;10.226;2023-03-14T03:10:59;4.73;;;2.70;;
4724;SDS011;2376;53.544;10.226;2023-03-14T03:13:26;9.73;;;3.60;;
4724;SDS011;2376;53.544;10.226;2023-03-14T03:15:53;6.37;;;3.30;;
4724;SDS011;2376;53.544;10.226;2023-03-14T03:18:20;5.27;;;2.40;;
4724;SDS011;2376;53.544;10.226;2023-03-14T03:20:48;5.90;;;2.90;;
4724;SDS011;2376;53.544;10.226;2023-03-14T03:23:15;3.43;;;3.10;;
4724;SDS011;2376;53.544;10.226;2023-03-14T03:25:42;7.63;;;2.70;;
4724;SDS011;2376;53.544;10.226;2023-03-14T03:28:14;9.00;;;3.00;;
4724;SDS011;2376;53.544;10.226;2023-03-14T03:30:41;5.57;;;2.63;;
4724;SDS011;2376;53.544;10.226;2023-03-14T03:33:08;4.27;;;2.77;;
4724;SDS011;2376;53.544;10.226;2023-03-14T03:35:43;5.93;;;2.80;;
4724;SDS011;2376;53.544;10.226;2023-03-14T03:38:12;6.90;;;2.90;;
4724;SDS011;2376;53.544;10.226;2023-03-14T03:40:39;6.80;;;3.10;;
4724;SDS011;2376;53.544;10.226;2023-03-14T03:43:06;3.40;;;2.80;;
4724;SDS011;2376;53.544;10.226;2023-03-14T03:45:33;5.63;;;2.90;;
4724;SDS011;2376;53.544;10.226;2023-03-14T03:48:00;7.23;;;2.93;;
4724;SDS011;2376;53.544;10.226;2023-03-14T03:50:27;5.63;;;3.27;;
4724;SDS011;2376;53.544;10.226;2023-03-14T03:52:53;12.70;;;3.43;;
4724;SDS011;2376;53.544;10.226;2023-03-14T03:55:21;4.53;;;3.30;;
4724;SDS011;2376;53.544;10.226;2023-03-14T03:57:48;4.63;;;3.60;;
4724;SDS011;2376;53.544;10.226;2023-03-14T04:00:15;8.30;;;3.20;;
4724;SDS011;2376;53.544;10.226;2023-03-14T04:02:42;4.23;;;2.93;;
4724;SDS011;2376;53.544;10.226;2023-03-14T04:05:09;4.40;;;2.67;;
4724;SDS011;2376;53.544;10.226;2023-03-14T04:07:36;5.93;;;3.07;;
4724;SDS011;2376;53.544;10.226;2023-03-14T04:10:03;5.43;;;3.37;;
4724;SDS011;2376;53.544;10.226;2023-03-14T04:12:31;2.93;;;2.73;;
4724;SDS011;2376;53.544;10.226;2023-03-14T04:14:58;3.00;;;2.80;;
4724;SDS011;2376;53.544;10.226;2023-03-14T04:17:24;8.10;;;2.70;;
4724;SDS011;2376;53.544;10.226;2023-03-14T04:19:51;6.40;;;3.03;;
4724;SDS011;2376;53.544;10.226;2023-03-14T04:22:18;5.27;;;3.30;;
4724;SDS011;2376;53.544;10.226;2023-03-14T04:24:45;5.77;;;3.13;;
4724;SDS011;2376;53.544;10.226;2023-03-14T04:27:12;5.43;;;2.70;;
4724;SDS011;2376;53.544;10.226;2023-03-14T04:29:41;8.07;;;2.70;;
4724;SDS011;2376;53.544;10.226;2023-03-14T04:32:08;8.63;;;3.70;;
4724;SDS011;2376;53.544;10.226;2023-03-14T04:34:35;6.10;;;3.20;;
4724;SDS011;2376;53.544;10.226;2023-03-14T04:37:02;5.90;;;3.37;;
4724;SDS011;2376;53.544;10.226;2023-03-14T04:39:28;11.83;;;4.17;;
4724;SDS011;2376;53.544;10.226;2023-03-14T04:41:55;4.87;;;2.87;;
4724;SDS011;2376;53.544;10.226;2023-03-14T04:44:22;4.80;;;3.50;;
4724;SDS011;2376;53.544;10.226;2023-03-14T04:46:50;4.33;;;3.30;;
4724;SDS011;2376;53.544;10.226;2023-03-14T04:49:17;5.07;;;3.73;;
4724;SDS011;2376;53.544;10.226;2023-03-14T04:51:43;7.97;;;3.93;;
4724;SDS011;2376;53.544;10.226;2023-03-14T04:54:10;4.87;;;3.33;;
4724;SDS011;2376;53.544;10.226;2023-03-14T04:56:37;4.07;;;3.60;;
4724;SDS011;2376;53.544;10.226;2023-03-14T04:59:04;5.73;;;3.60;;
4724;SDS011;2376;53.544;10.226;2023-03-14T05:01:31;8.00;;;4.00;;
4724;SDS011;2376;53.544;10.226;2023-03-14T05:03:59;3.70;;;3.40;;
4724;SDS011;2376;53.544;10.226;2023-03-14T05:06:26;8.90;;;2.80;;
4724;SDS011;2376;53.544;10.226;2023-03-14T05:08:52;4.10;;;3.40;;
4724;SDS011;2376;53.544;10.226;2023-03-14T05:11:19;4.13;;;3.50;;
4724;SDS011;2376;53.544;10.226;2023-03-14T05:13:46;4.97;;;3.70;;
4724;SDS011;2376;53.544;10.226;2023-03-14T05:16:13;4.03;;;3.63;;
4724;SDS011;2376;53.544;10.226;2023-03-14T05:18:40;9.77;;;4.37;;
4724;SDS011;2376;53.544;10.226;2023-03-14T05:21:08;4.70;;;3.20;;
4724;SDS011;2376;53.544;10.226;2023-03-14T05:23:35;5.13;;;3.30;;
4724;SDS011;2376;53.544;10.226;2023-03-14T05:26:01;5.77;;;3.60;;
4724;SDS011;2376;53.544;10.226;2023-03-14T05:28:28;4.33;;;3.57;;
4724;SDS011;2376;53.544;10.226;2023-03-14T05:30:55;4.30;;;2.60;;
4724;SDS011;2376;53.544;10.226;2023-03-14T05:33:22;3.17;;;2.90;;
4724;SDS011;2376;53.544;10.226;2023-03-14T05:35:48;2.70;;;2.50;;
4724;SDS011;2376;53.544;10.226;2023-03-14T05:38:16;7.17;;;3.10;;
4724;SDS011;2376;53.544;10.226;2023-03-14T05:40:44;3.90;;;3.27;;
4724;SDS011;2376;53.544;10.226;2023-03-14T05:43:11;5.93;;;3.30;;
4724;SDS011;2376;53.544;10.226;2023-03-14T05:45:38;3.37;;;3.17;;
4724;SDS011;2376;53.544;10.226;2023-03-14T05:48:05;4.83;;;2.60;;
4724;SDS011;2376;53.544;10.226;2023-03-14T05:50:32;4.93;;;3.50;;
4724;SDS011;2376;53.544;10.226;2023-03-14T05:52:58;5.87;;;3.00;;
4724;SDS011;2376;53.544;10.226;2023-03-14T05:55:27;3.97;;;3.67;;
4724;SDS011;2376;53.544;10.226;2023-03-14T05:57:53;3.83;;;3.53;;
4724;SDS011;2376;53.544;10.226;2023-03-14T06:00:21;4.93;;;3.03;;
4724;SDS011;2376;53.544;10.226;2023-03-14T06:02:48;3.90;;;3.60;;
4724;SDS011;2376;53.544;10.226;2023-03-14T06:05:14;3.40;;;3.10;;
4724;SDS011;2376;53.544;10.226;2023-03-14T06:07:41;5.53;;;3.23;;
4724;SDS011;2376;53.544;10.226;2023-03-14T06:10:08;3.37;;;2.90;;
4724;SDS011;2376;53.544;10.226;2023-03-14T06:12:37;4.73;;;3.40;;
4724;SDS011;2376;53.544;10.226;2023-03-14T06:15:04;4.70;;;3.10;;
4724;SDS011;2376;53.544;10.226;2023-03-14T06:17:31;4.47;;;3.57;;
4724;SDS011;2376;53.544;10.226;2023-03-14T06:19:58;4.50;;;3.50;;
4724;SDS011;2376;53.544;10.226;2023-03-14T06:22:25;2.60;;;2.50;;
4724;SDS011;2376;53.544;10.226;2023-03-14T06:24:52;3.90;;;2.87;;
4724;SDS011;2376;53.544;10.226;2023-03-14T06:27:18;3.23;;;2.93;;
4724;SDS011;2376;53.544;10.226;2023-03-14T06:29:46;5.13;;;3.30;;
4724;SDS011;2376;53.544;10.226;2023-03-14T06:32:13;3.03;;;2.70;;
4724;SDS011;2376;53.544;10.226;2023-03-14T06:34:40;3.13;;;2.83;;
4724;SDS011;2376;53.544;10.226;2023-03-14T06:37:06;5.40;;;2.50;;
4724;SDS011;2376;53.544;10.226;2023-03-14T06:39:33;4.33;;;3.33;;
4724;SDS011;2376;53.544;10.226;2023-03-14T06:42:00;4.40;;;2.60;;
4724;SDS011;2376;53.544;10.226;2023-03-14T06:44:27;5.23;;;3.67;;
4724;SDS011;2376;53.544;10.226;2023-03-14T06:46:55;6.87;;;2.87;;
4724;SDS011;2376;53.544;10.226;2023-03-14T06:49:22;3.13;;;2.83;;
4724;SDS011;2376;53.544;10.226;2023-03-14T06:51:49;2.63;;;2.37;;
4724;SDS011;2376;53.544;10.226;2023-03-14T06:54:15;3.87;;;2.43;;
4724;SDS011;2376;53.544;10.226;2023-03-14T06:56:43;3.60;;;2.87;;
4724;SDS011;2376;53.544;10.226;2023-03-14T06:59:10;3.60;;;2.50;;
4724;SDS011;2376;53.544;10.226;2023-03-14T07:01:37;3.13;;;2.40;;
4724;SDS011;2376;53.544;10.226;2023-03-14T07:04:06;3.80;;;2.30;;
4724;SDS011;2376;53.544;10.226;2023-03-14T07:06:34;2.90;;;2.40;;
4724;SDS011;2376;53.544;10.226;2023-03-14T07:09:01;7.33;;;4.00;;
4724;SDS011;2376;53.544;10.226;2023-03-14T07:11:28;4.30;;;2.73;;
4724;SDS011;2376;53.544;10.226;2023-03-14T07:13:54;4.43;;;2.10;;
4724;SDS011;2376;53.544;10.226;2023-03-14T07:16:21;4.70;;;2.43;;
4724;SDS011;2376;53.544;10.226;2023-03-14T07:18:48;6.63;;;2.30;;
4724;SDS011;2376;53.544;10.226;2023-03-14T07:21:16;2.37;;;2.17;;
4724;SDS011;2376;53.544;10.226;2023-03-14T07:23:43;5.33;;;2.43;;
4724;SDS011;2376;53.544;10.226;2023-03-14T07:26:10;7.73;;;2.80;;
4724;SDS011;2376;53.544;10.226;2023-03-14T07:28:37;5.70;;;2.43;;
4724;SDS011;2376;53.544;10.226;2023-03-14T07:31:04;3.43;;;2.27;;
4724;SDS011;2376;53.544;10.226;2023-03-14T07:33:31;4.40;;;2.67;;
4724;SDS011;2376;53.544;10.226;2023-03-14T07:35:58;2.23;;;2.10;;
4724;SDS011;2376;53.544;10.226;2023-03-14T07:38:26;3.73;;;2.57;;
4724;SDS011;2376;53.544;10.226;2023-03-14T07:40:57;6.03;;;2.20;;
4724;SDS011;2376;53.544;10.226;2023-03-14T07:43:25;2.73;;;2.27;;
4724;SDS011;2376;53.544;10.226;2023-03-14T07:45:52;4.30;;;2.10;;
4724;SDS011;2376;53.544;10.226;2023-03-14T07:48:19;4.30;;;1.90;;
4724;SDS011;2376;53.544;10.226;2023-03-14T07:50:47;2.27;;;2.07;;
4724;SDS011;2376;53.544;10.226;2023-03-14T07:53:15;1.80;;;1.60;;
4724;SDS011;2376;53.544;10.226;2023-03-14T07:55:43;3.00;;;1.47;;
4724;SDS011;2376;53.544;10.226;2023-03-14T07:58:10;2.30;;;1.40;;
4724;SDS011;2376;53.544;10.226;2023-03-14T08:00:37;3.33;;;1.70;;
4724;SDS011;2376;53.544;10.226;2023-03-14T08:03:04;2.93;;;1.53;;
4724;SDS011;2376;53.544;10.226;2023-03-14T08:05:30;1.73;;;1.10;;
4724;SDS011;2376;53.544;10.226;2023-03-14T08:07:59;4.50;;;1.60;;
4724;SDS011;2376;53.544;10.226;2023-03-14T08:10:26;2.20;;;1.60;;
4724;SDS011;2376;53.544;10.226;2023-03-14T08:12:55;1.70;;;1.60;;
4724;SDS011;2376;53.544;10.226;2023-03-14T08:15:23;6.30;;;1.80;;
4724;SDS011;2376;53.544;10.226;2023-03-14T08:17:51;4.20;;;1.80;;
4724;SDS011;2376;53.544;10.226;2023-03-14T08:20:19;2.70;;;1.73;;
4724;SDS011;2376;53.544;10.226;2023-03-14T08:22:46;2.90;;;2.23;;
4724;SDS011;2376;53.544;10.226;2023-03-14T08:25:13;2.30;;;1.93;;
4724;SDS011;2376;53.544;10.226;2023-03-14T08:27:40;2.53;;;2.20;;
4724;SDS011;2376;53.544;10.226;2023-03-14T08:30:10;3.70;;;2.17;;
4724;SDS011;2376;53.544;10.226;2023-03-14T08:32:38;3.57;;;2.23;;
4724;SDS011;2376;53.544;10.226;2023-03-14T08:35:05;1.80;;;1.73;;
4724;SDS011;2376;53.544;10.226;2023-03-14T08:37:33;3.60;;;2.73;;
4724;SDS011;2376;53.544;10.226;2023-03-14T08:40:01;4.77;;;2.20;;
4724;SDS011;2376;53.544;10.226;2023-03-14T08:42:31;3.17;;;2.30;;
4724;SDS011;2376;53.544;10.226;2023-03-14T08:44:58;3.43;;;2.67;;
4724;SDS011;2376;53.544;10.226;2023-03-14T08:47:26;3.93;;;2.73;;
4724;SDS011;2376;53.544;10.226;2023-03-14T08:49:53;6.10;;;3.40;;
4724;SDS011;2376;53.544;10.226;2023-03-14T08:52:20;6.07;;;3.30;;
4724;SDS011;2376;53.544;10.226;2023-03-14T08:54:47;6.33;;;3.83;;
4724;SDS011;2376;53.544;10.226;2023-03-14T08:57:13;4.40;;;3.87;;
4724;SDS011;2376;53.544;10.226;2023-03-14T08:59:40;6.97;;;4.87;;
4724;SDS011;2376;53.544;10.226;2023-03-14T09:02:08;5.13;;;3.97;;
4724;SDS011;2376;53.544;10.226;2023-03-14T09:04:38;4.70;;;4.30;;
4724;SDS011;2376;53.544;10.226;2023-03-14T09:07:04;4.93;;;4.20;;
4724;SDS011;2376;53.544;10.226;2023-03-14T09:09:31;9.60;;;4.60;;
4724;SDS011;2376;53.544;10.226;2023-03-14T09:11:58;4.27;;;3.87;;
4724;SDS011;2376;53.544;10.226;2023-03-14T09:14:25;4.40;;;3.87;;
4724;SDS011;2376;53.544;10.226;2023-03-14T09:16:52;4.20;;;3.70;;
4724;SDS011;2376;53.544;10.226;2023-03-14T09:19:18;4.47;;;4.10;;
4724;SDS011;2376;53.544;10.226;2023-03-14T09:21:47;7.27;;;4.50;;
4724;SDS011;2376;53.544;10.226;2023-03-14T09:24:13;5.57;;;4.30;;
4724;SDS011;2376;53.544;10.226;2023-03-14T09:26:40;4.37;;;3.80;;
4724;SDS011;2376;53.544;10.226;2023-03-14T09:29:07;8.80;;;5.27;;
4724;SDS011;2376;53.544;10.226;2023-03-14T09:31:34;5.20;;;4.70;;
4724;SDS011;2376;53.544;10.226;2023-03-14T09:34:01;5.40;;;3.53;;
4724;SDS011;2376;53.544;10.226;2023-03-14T09:36:27;5.47;;;4.60;;
4724;SDS011;2376;53.544;10.226;2023-03-14T09:38:56;4.67;;;4.17;;
4724;SDS011;2376;53.544;10.226;2023-03-14T09:41:24;7.87;;;4.97;;
4724;SDS011;2376;53.544;10.226;2023-03-14T09:43:56;6.07;;;4.20;;
4724;SDS011;2376;53.544;10.226;2023-03-14T09:46:28;8.13;;;4.20;;
4724;SDS011;2376;53.544;10.226;2023-03-14T09:48:55;11.13;;;5.03;;
4724;SDS011;2376;53.544;10.226;2023-03-14T09:51:22;3.97;;;3.57;;
4724;SDS011;2376;53.544;10.226;2023-03-14T09:53:50;7.73;;;3.20;;
4724;SDS011;2376;53.544;10.226;2023-03-14T09:56:19;5.10;;;3.20;;
4724;SDS011;2376;53.544;10.226;2023-03-14T09:58:50;4.70;;;4.30;;
4724;SDS011;2376;53.544;10.226;2023-03-14T10:01:20;5.63;;;3.93;;
4724;SDS011;2376;53.544;10.226;2023-03-14T10:03:50;4.53;;;3.80;;
4724;SDS011;2376;53.544;10.226;2023-03-14T10:06:19;6.23;;;5.60;;
4724;SDS011;2376;53.544;10.226;2023-03-14T10:08:49;4.27;;;3.37;;
4724;SDS011;2376;53.544;10.226;2023-03-14T10:11:19;3.80;;;3.50;;
4724;SDS011;2376;53.544;10.226;2023-03-14T10:13:48;3.97;;;3.10;;
4724;SDS011;2376;53.544;10.226;2023-03-14T10:16:16;5.40;;;2.47;;
4724;SDS011;2376;53.544;10.226;2023-03-14T10:18:46;4.87;;;2.17;;
4724;SDS011;2376;53.544;10.226;2023-03-14T10:21:17;1.13;;;1.03;;
4724;SDS011;2376;53.544;10.226;2023-03-14T10:23:51;1.00;;;1.00;;
4724;SDS011;2376;53.544;10.226;2023-03-14T10:26:23;1.70;;;0.80;;
4724;SDS011;2376;53.544;10.226;2023-03-14T10:28:51;1.20;;;0.93;;
4724;SDS011;2376;53.544;10.226;2023-03-14T10:31:19;0.80;;;0.80;;
4724;SDS011;2376;53.544;10.226;2023-03-14T10:33:58;1.10;;;1.10;;
4724;SDS011;2376;53.544;10.226;2023-03-14T10:36:26;5.73;;;1.30;;
4724;SDS011;2376;53.544;10.226;2023-03-14T10:38:56;2.63;;;1.00;;
4724;SDS011;2376;53.544;10.226;2023-03-14T10:41:32;0.80;;;0.80;;
4724;SDS011;2376;53.544;10.226;2023-03-14T10:43:59;0.80;;;0.70;;
4724;SDS011;2376;53.544;10.226;2023-03-14T10:46:29;2.00;;;0.90;;
4724;SDS011;2376;53.544;10.226;2023-03-14T10:48:58;1.47;;;1.10;;
4724;SDS011;2376;53.544;10.226;2023-03-14T10:51:30;0.83;;;0.83;;
4724;SDS011;2376;53.544;10.226;2023-03-14T10:53:57;2.80;;;1.23;;
4724;SDS011;2376;53.544;10.226;2023-03-14T10:56:27;1.13;;;1.03;;
4724;SDS011;2376;53.544;10.226;2023-03-14T10:59:00;2.10;;;1.00;;
4724;SDS011;2376;53.544;10.226;2023-03-14T11:01:32;1.23;;;0.80;;
4724;SDS011;2376;53.544;10.226;2023-03-14T11:04:10;0.80;;;0.60;;
4724;SDS011;2376;53.544;10.226;2023-03-14T11:06:45;1.60;;;0.93;;
4724;SDS011;2376;53.544;10.226;2023-03-14T11:09:18;0.93;;;0.80;;
4724;SDS011;2376;53.544;10.226;2023-03-14T11:11:49;1.00;;;0.70;;
4724;SDS011;2376;53.544;10.226;2023-03-14T11:14:23;0.83;;;0.80;;
4724;SDS011;2376;53.544;10.226;2023-03-14T11:16:57;1.00;;;0.90;;
4724;SDS011;2376;53.544;10.226;2023-03-14T11:19:32;1.10;;;1.00;;
4724;SDS011;2376;53.544;10.226;2023-03-14T11:22:09;0.80;;;0.80;;
4724;SDS011;2376;53.544;10.226;2023-03-14T11:24:48;0.60;;;0.60;;
4724;SDS011;2376;53.544;10.226;2023-03-14T11:27:41;1.57;;;0.80;;
4724;SDS011;2376;53.544;10.226;2023-03-14T11:30:16;0.80;;;0.80;;
4724;SDS011;2376;53.544;10.226;2023-03-14T11:32:45;0.80;;;0.80;;
4724;SDS011;2376;53.544;10.226;2023-03-14T11:35:17;1.13;;;1.03;;
4724;SDS011;2376;53.544;10.226;2023-03-14T11:37:52;0.90;;;0.90;;
4724;SDS011;2376;53.544;10.226;2023-03-14T11:40:21;2.60;;;0.90;;
4724;SDS011;2376;53.544;10.226;2023-03-14T11:42:55;0.67;;;0.67;;
4724;SDS011;2376;53.544;10.226;2023-03-14T11:45:30;0.80;;;0.70;;
4724;SDS011;2376;53.544;10.226;2023-03-14T11:48:07;0.70;;;0.70;;
4724;SDS011;2376;53.544;10.226;2023-03-14T11:50:42;6.37;;;1.50;;
4724;SDS011;2376;53.544;10.226;2023-03-14T11:53:11;1.27;;;0.77;;
4724;SDS011;2376;53.544;10.226;2023-03-14T11:55:42;1.43;;;0.70;;
4724;SDS011;2376;53.544;10.226;2023-03-14T11:58:10;1.73;;;0.70;;
4724;SDS011;2376;53.544;10.226;2023-03-14T12:00:42;2.70;;;0.70;;
4724;SDS011;2376;53.544;10.226;2023-03-14T12:03:11;2.60;;;0.90;;
4724;SDS011;2376;53.544;10.226;2023-03-14T12:05:45;4.53;;;0.90;;
4724;SDS011;2376;53.544;10.226;2023-03-14T12:08:27;2.40;;;1.27;;
4724;SDS011;2376;53.544;10.226;2023-03-14T12:11:09;1.67;;;0.80;;
4724;SDS011;2376;53.544;10.226;2023-03-14T12:13:39;0.90;;;0.70;;
4724;SDS011;2376;53.544;10.226;2023-03-14T12:16:27;4.20;;;1.00;;
4724;SDS011;2376;53.544;10.226;2023-03-14T12:19:13;3.53;;;1.57;;
4724;SDS011;2376;53.544;10.226;2023-03-14T12:24:53;8.13;;;1.30;;
4724;SDS011;2376;53.544;10.226;2023-03-14T12:30:30;2.63;;;1.10;;
4724;SDS011;2376;53.544;10.226;2023-03-14T12:36:01;3.83;;;1.10;;
4724;SDS011;2376;53.544;10.226;2023-03-14T12:38:51;3.50;;;1.00;;
4724;SDS011;2376;53.544;10.226;2023-03-14T12:41:24;6.10;;;1.23;;
4724;SDS011;2376;53.544;10.226;2023-03-14T12:43:54;2.80;;;1.33;;
4724;SDS011;2376;53.544;10.226;2023-03-14T12:46:22;6.90;;;1.50;;
4724;SDS011;2376;53.544;10.226;2023-03-14T12:48:56;6.57;;;1.13;;
4724;SDS011;2376;53.544;10.226;2023-03-14T12:51:34;18.17;;;4.23;;
4724;SDS011;2376;53.544;10.226;2023-03-14T12:54:14;5.30;;;2.80;;
4724;SDS011;2376;53.544;10.226;2023-03-14T12:59:50;6.90;;;1.70;;
4724;SDS011;2376;53.544;10.226;2023-03-14T13:02:22;3.57;;;1.60;;
4724;SDS011;2376;53.544;10.226;2023-03-14T13:04:53;4.70;;;1.57;;
4724;SDS011;2376;53.544;10.226;2023-03-14T13:07:32;3.10;;;1.57;;
4724;SDS011;2376;53.544;10.226;2023-03-14T13:10:24;6.80;;;1.73;;
4724;SDS011;2376;53.544;10.226;2023-03-14T13:12:53;7.37;;;1.50;;
4724;SDS011;2376;53.544;10.226;2023-03-14T13:15:29;8.17;;;2.10;;
4724;SDS011;2376;53.544;10.226;2023-03-14T13:17:59;3.17;;;1.07;;
4724;SDS011;2376;53.544;10.226;2023-03-14T13:20:30;6.73;;;1.73;;
4724;SDS011;2376;53.544;10.226;2023-03-14T13:22:58;12.33;;;1.70;;
4724;SDS011;2376;53.544;10.226;2023-03-14T13:25:30;6.33;;;1.67;;
4724;SDS011;2376;53.544;10.226;2023-03-14T13:28:00;5.37;;;1.70;;
4724;SDS011;2376;53.544;10.226;2023-03-14T13:30:28;10.87;;;2.10;;
4724;SDS011;2376;53.544;10.226;2023-03-14T13:33:05;7.97;;;1.53;;
4724;SDS011;2376;53.544;10.226;2023-03-14T13:35:38;7.90;;;1.67;;
4724;SDS011;2376;53.544;10.226;2023-03-14T13:38:13;7.87;;;2.53;;
4724;SDS011;2376;53.544;10.226;2023-03-14T13:40:44;7.83;;;1.87;;
4724;SDS011;2376;53.544;10.226;2023-03-14T13:43:16;6.70;;;1.70;;
4724;SDS011;2376;53.544;10.226;2023-03-14T13:45:49;8.43;;;2.13;;
4724;SDS011;2376;53.544;10.226;2023-03-14T13:48:21;10.80;;;2.53;;
4724;SDS011;2376;53.544;10.226;2023-03-14T13:50:52;5.00;;;1.70;;
4724;SDS011;2376;53.544;10.226;2023-03-14T13:53:21;14.23;;;1.80;;
4724;SDS011;2376;53.544;10.226;2023-03-14T13:55:52;8.83;;;2.03;;
4724;SDS011;2376;53.544;10.226;2023-03-14T13:58:20;4.93;;;1.70;;
4724;SDS011;2376;53.544;10.226;2023-03-14T14:00:55;7.93;;;1.70;;
4724;SDS011;2376;53.544;10.226;2023-03-14T14:03:25;3.20;;;1.33;;
4724;SDS011;2376;53.544;10.226;2023-03-14T14:05:54;6.70;;;1.40;;
4724;SDS011;2376;53.544;10.226;2023-03-14T14:08:22;4.90;;;1.33;;
4724;SDS011;2376;53.544;10.226;2023-03-14T14:10:49;7.23;;;1.30;;
4724;SDS011;2376;53.544;10.226;2023-03-14T14:13:22;5.00;;;1.67;;
4724;SDS011;2376;53.544;10.226;2023-03-14T14:15:51;6.47;;;1.70;;
4724;SDS011;2376;53.544;10.226;2023-03-14T14:18:21;3.87;;;1.60;;
4724;SDS011;2376;53.544;10.226;2023-03-14T14:20:50;4.73;;;1.50;;
4724;SDS011;2376;53.544;10.226;2023-03-14T14:23:18;5.60;;;1.67;;
4724;SDS011;2376;53.544;10.226;2023-03-14T14:25:50;9.20;;;2.00;;
4724;SDS011;2376;53.544;10.226;2023-03-14T14:28:21;6.43;;;1.67;;
4724;SDS011;2376;53.544;10.226;2023-03-14T14:31:02;4.77;;;1.93;;
4724;SDS011;2376;53.544;10.226;2023-03-14T14:33:39;4.20;;;1.43;;
4724;SDS011;2376;53.544;10.226;2023-03-14T14:36:13;6.90;;;2.10;;
4724;SDS011;2376;53.544;10.226;2023-03-14T14:38:48;6.43;;;1.70;;
4724;SDS011;2376;53.544;10.226;2023-03-14T14:41:17;4.57;;;1.20;;
4724;SDS011;2376;53.544;10.226;2023-03-14T14:43:47;5.13;;;1.47;;
4724;SDS011;2376;53.544;10.226;2023-03-14T14:46:16;5.10;;;1.60;;
4724;SDS011;2376;53.544;10.226;2023-03-14T14:48:45;5.47;;;1.30;;
4724;SDS011;2376;53.544;10.226;2023-03-14T14:51:22;9.93;;;1.90;;
4724;SDS011;2376;53.544;10.226;2023-03-14T14:53:59;12.03;;;1.73;;
4724;SDS011;2376;53.544;10.226;2023-03-14T14:56:47;3.07;;;1.40;;
4724;SDS011;2376;53.544;10.226;2023-03-14T14:59:22;7.10;;;1.50;;
4724;SDS011;2376;53.544;10.226;2023-03-14T15:01:55;6.30;;;1.73;;
4724;SDS011;2376;53.544;10.226;2023-03-14T15:04:23;3.00;;;1.33;;
4724;SDS011;2376;53.544;10.226;2023-03-14T15:06:50;6.87;;;1.50;;
4724;SDS011;2376;53.544;10.226;2023-03-14T15:09:18;2.50;;;1.17;;
4724;SDS011;2376;53.544;10.226;2023-03-14T15:11:46;3.20;;;1.20;;
4724;SDS011;2376;53.544;10.226;2023-03-14T15:14:13;6.93;;;1.47;;
4724;SDS011;2376;53.544;10.226;2023-03-14T15:16:41;5.03;;;1.47;;
4724;SDS011;2376;53.544;10.226;2023-03-14T15:19:10;6.07;;;1.20;;
4724;SDS011;2376;53.544;10.226;2023-03-14T15:21:45;3.17;;;1.20;;
4724;SDS011;2376;53.544;10.226;2023-03-14T15:24:12;3.47;;;0.93;;